sensor_id;sensor_type;location;lat;lon;timestamp;P1;durP1;ratioP1;P2;durP2;ratioP2
26478;SDS011;14163;-26.142;27.992;2022-09-24T00:10:04;19.67;;;16.13;;
26478;SDS011;14163;-26.142;27.992;2022-09-24T00:12:34;17.60;;;14.67;;
26478;SDS011;14163;-26.142;27.992;2022-09-24T00:15:04;16.90;;;15.17;;
26478;SDS011;14163;-26.142;27.992;2022-09-24T00:17:33;17.40;;;15.70;;
26478;SDS011;14163;-26.142;27.992;2022-09-24T00:20:03;18.07;;;15.30;;
26478;SDS011;14163;-26.142;27.992;2022-09-24T00:22:33;15.97;;;14.47;;
26478;SDS011;14163;-26.142;27.992;2022-09-24T00:25:04;16.20;;;14.70;;
26478;SDS011;14163;-26.142;27.992;2022-09-24T00:27:50;17.10;;;15.50;;
26478;SDS011;14163;-26.142;27.992;2022-09-24T00:30:19;22.17;;;16.47;;
26478;SDS011;14163;-26.142;27.992;2022-09-24T00:32:48;16.70;;;15.20;;
26478;SDS011;14163;-26.142;27.992;2022-09-24T00:35:17;17.30;;;15.80;;
26478;SDS011;14163;-26.142;27.992;2022-09-24T00:37:46;16.40;;;14.90;;
26478;SDS011;14163;-26.142;27.992;2022-09-24T00:40:17;18.10;;;16.20;;
26478;SDS011;14163;-26.142;27.992;2022-09-24T00:42:47;16.60;;;15.10;;
26478;SDS011;14163;-26.142;27.992;2022-09-24T00:45:16;18.10;;;16.33;;
26478;SDS011;14163;-26.142;27.992;2022-09-24T00:47:45;19.53;;;17.27;;
26478;SDS011;14163;-26.142;27.992;2022-09-24T00:50:16;17.23;;;15.47;;
26478;SDS011;14163;-26.142;27.992;2022-09-24T00:52:49;19.20;;;17.23;;
26478;SDS011;14163;-26.142;27.992;2022-09-24T00:55:24;17.60;;;15.80;;
26478;SDS011;14163;-26.142;27.992;2022-09-24T00:57:54;18.20;;;16.40;;
26478;SDS011;14163;-26.142;27.992;2022-09-24T01:00:24;19.30;;;17.50;;
26478;SDS011;14163;-26.142;27.992;2022-09-24T01:02:55;18.63;;;16.83;;
26478;SDS011;14163;-26.142;27.992;2022-09-24T01:05:27;19.90;;;17.93;;
26478;SDS011;14163;-26.142;27.992;2022-09-24T01:07:56;25.10;;;19.63;;
26478;SDS011;14163;-26.142;27.992;2022-09-24T01:10:30;21.20;;;19.10;;
26478;SDS011;14163;-26.142;27.992;2022-09-24T01:13:20;21.43;;;19.23;;
26478;SDS011;14163;-26.142;27.992;2022-09-24T01:16:06;21.93;;;19.63;;
26478;SDS011;14163;-26.142;27.992;2022-09-24T01:18:42;21.70;;;19.57;;
26478;SDS011;14163;-26.142;27.992;2022-09-24T01:21:24;21.10;;;18.80;;
26478;SDS011;14163;-26.142;27.992;2022-09-24T01:24:02;21.27;;;18.37;;
26478;SDS011;14163;-26.142;27.992;2022-09-24T01:26:48;19.80;;;17.77;;
26478;SDS011;14163;-26.142;27.992;2022-09-24T01:29:34;21.47;;;18.40;;
26478;SDS011;14163;-26.142;27.992;2022-09-24T01:32:07;19.87;;;18.07;;
26478;SDS011;14163;-26.142;27.992;2022-09-24T01:34:45;19.50;;;17.50;;
26478;SDS011;14163;-26.142;27.992;2022-09-24T01:37:17;19.57;;;17.77;;
26478;SDS011;14163;-26.142;27.992;2022-09-24T01:39:49;19.80;;;18.00;;
26478;SDS011;14163;-26.142;27.992;2022-09-24T01:42:22;19.90;;;17.90;;
26478;SDS011;14163;-26.142;27.992;2022-09-24T01:44:55;20.67;;;18.60;;
26478;SDS011;14163;-26.142;27.992;2022-09-24T01:47:28;18.53;;;16.83;;
26478;SDS011;14163;-26.142;27.992;2022-09-24T01:50:03;19.23;;;17.43;;
26478;SDS011;14163;-26.142;27.992;2022-09-24T01:52:34;21.67;;;19.37;;
26478;SDS011;14163;-26.142;27.992;2022-09-24T01:55:09;21.60;;;19.53;;
26478;SDS011;14163;-26.142;27.992;2022-09-24T01:57:44;20.13;;;18.23;;
26478;SDS011;14163;-26.142;27.992;2022-09-24T02:00:19;21.80;;;19.70;;
26478;SDS011;14163;-26.142;27.992;2022-09-24T02:02:50;20.80;;;18.80;;
26478;SDS011;14163;-26.142;27.992;2022-09-24T02:05:25;19.53;;;17.63;;
26478;SDS011;14163;-26.142;27.992;2022-09-24T02:08:01;21.23;;;19.20;;
26478;SDS011;14163;-26.142;27.992;2022-09-24T02:10:35;20.70;;;18.60;;
26478;SDS011;14163;-26.142;27.992;2022-09-24T02:13:11;19.87;;;18.17;;
26478;SDS011;14163;-26.142;27.992;2022-09-24T02:15:43;21.83;;;19.73;;
26478;SDS011;14163;-26.142;27.992;2022-09-24T02:18:15;21.83;;;19.63;;
26478;SDS011;14163;-26.142;27.992;2022-09-24T02:20:47;21.57;;;19.33;;
26478;SDS011;14163;-26.142;27.992;2022-09-24T02:23:18;21.97;;;19.63;;
26478;SDS011;14163;-26.142;27.992;2022-09-24T02:25:53;22.03;;;18.53;;
26478;SDS011;14163;-26.142;27.992;2022-09-24T02:28:26;22.10;;;20.00;;
26478;SDS011;14163;-26.142;27.992;2022-09-24T02:30:59;21.57;;;19.60;;
26478;SDS011;14163;-26.142;27.992;2022-09-24T02:33:33;22.80;;;20.37;;
26478;SDS011;14163;-26.142;27.992;2022-09-24T02:36:20;21.87;;;19.80;;
26478;SDS011;14163;-26.142;27.992;2022-09-24T02:38:49;22.63;;;20.50;;
26478;SDS011;14163;-26.142;27.992;2022-09-24T02:41:19;22.40;;;20.30;;
26478;SDS011;14163;-26.142;27.992;2022-09-24T02:43:49;22.03;;;20.03;;
26478;SDS011;14163;-26.142;27.992;2022-09-24T02:46:21;22.60;;;20.50;;
26478;SDS011;14163;-26.142;27.992;2022-09-24T02:48:50;22.97;;;20.67;;
26478;SDS011;14163;-26.142;27.992;2022-09-24T02:51:19;24.17;;;21.10;;
26478;SDS011;14163;-26.142;27.992;2022-09-24T02:53:48;23.63;;;20.47;;
26478;SDS011;14163;-26.142;27.992;2022-09-24T02:56:18;23.80;;;21.50;;
26478;SDS011;14163;-26.142;27.992;2022-09-24T02:58:48;21.47;;;19.47;;
26478;SDS011;14163;-26.142;27.992;2022-09-24T03:01:17;27.13;;;20.20;;
26478;SDS011;14163;-26.142;27.992;2022-09-24T03:03:49;23.67;;;21.50;;
26478;SDS011;14163;-26.142;27.992;2022-09-24T03:06:18;26.40;;;23.63;;
26478;SDS011;14163;-26.142;27.992;2022-09-24T03:08:48;22.73;;;20.67;;
26478;SDS011;14163;-26.142;27.992;2022-09-24T03:11:18;22.57;;;20.43;;
26478;SDS011;14163;-26.142;27.992;2022-09-24T03:13:48;24.03;;;21.73;;
26478;SDS011;14163;-26.142;27.992;2022-09-24T03:16:17;23.60;;;21.27;;
26478;SDS011;14163;-26.142;27.992;2022-09-24T03:18:48;23.93;;;21.83;;
26478;SDS011;14163;-26.142;27.992;2022-09-24T03:21:19;24.10;;;21.90;;
26478;SDS011;14163;-26.142;27.992;2022-09-24T03:23:48;25.47;;;23.03;;
26478;SDS011;14163;-26.142;27.992;2022-09-24T03:26:17;24.67;;;22.27;;
26478;SDS011;14163;-26.142;27.992;2022-09-24T03:28:47;24.00;;;21.80;;
26478;SDS011;14163;-26.142;27.992;2022-09-24T03:31:16;25.97;;;23.50;;
26478;SDS011;14163;-26.142;27.992;2022-09-24T03:33:46;25.10;;;22.80;;
26478;SDS011;14163;-26.142;27.992;2022-09-24T03:36:16;24.77;;;22.47;;
26478;SDS011;14163;-26.142;27.992;2022-09-24T03:38:48;25.73;;;23.40;;
26478;SDS011;14163;-26.142;27.992;2022-09-24T03:41:20;25.83;;;23.37;;
26478;SDS011;14163;-26.142;27.992;2022-09-24T03:43:49;26.60;;;24.20;;
26478;SDS011;14163;-26.142;27.992;2022-09-24T03:46:18;26.67;;;23.87;;
26478;SDS011;14163;-26.142;27.992;2022-09-24T03:48:51;24.60;;;22.23;;
26478;SDS011;14163;-26.142;27.992;2022-09-24T03:51:20;26.70;;;24.10;;
26478;SDS011;14163;-26.142;27.992;2022-09-24T03:53:50;26.03;;;23.63;;
26478;SDS011;14163;-26.142;27.992;2022-09-24T03:56:19;26.33;;;23.80;;
26478;SDS011;14163;-26.142;27.992;2022-09-24T03:58:49;27.77;;;24.10;;
26478;SDS011;14163;-26.142;27.992;2022-09-24T04:01:18;26.03;;;22.90;;
26478;SDS011;14163;-26.142;27.992;2022-09-24T04:03:47;28.10;;;25.40;;
26478;SDS011;14163;-26.142;27.992;2022-09-24T04:06:17;27.17;;;24.60;;
26478;SDS011;14163;-26.142;27.992;2022-09-24T04:08:47;26.00;;;23.50;;
26478;SDS011;14163;-26.142;27.992;2022-09-24T04:11:16;25.27;;;22.90;;
26478;SDS011;14163;-26.142;27.992;2022-09-24T04:13:45;27.40;;;24.80;;
26478;SDS011;14163;-26.142;27.992;2022-09-24T04:16:14;27.50;;;24.70;;
26478;SDS011;14163;-26.142;27.992;2022-09-24T04:18:44;26.70;;;23.97;;
26478;SDS011;14163;-26.142;27.992;2022-09-24T04:21:13;27.07;;;24.50;;
26478;SDS011;14163;-26.142;27.992;2022-09-24T04:23:44;26.47;;;23.80;;
26478;SDS011;14163;-26.142;27.992;2022-09-24T04:26:13;25.27;;;22.87;;
26478;SDS011;14163;-26.142;27.992;2022-09-24T04:28:42;26.53;;;23.80;;
26478;SDS011;14163;-26.142;27.992;2022-09-24T04:31:11;26.40;;;23.70;;
26478;SDS011;14163;-26.142;27.992;2022-09-24T04:33:41;27.93;;;25.23;;
26478;SDS011;14163;-26.142;27.992;2022-09-24T04:36:10;24.70;;;22.33;;
26478;SDS011;14163;-26.142;27.992;2022-09-24T04:38:39;27.37;;;24.67;;
26478;SDS011;14163;-26.142;27.992;2022-09-24T04:41:10;26.67;;;23.97;;
26478;SDS011;14163;-26.142;27.992;2022-09-24T04:43:40;25.93;;;23.53;;
26478;SDS011;14163;-26.142;27.992;2022-09-24T04:46:11;27.07;;;24.47;;
26478;SDS011;14163;-26.142;27.992;2022-09-24T04:48:40;26.30;;;23.70;;
26478;SDS011;14163;-26.142;27.992;2022-09-24T04:51:10;27.80;;;25.10;;
26478;SDS011;14163;-26.142;27.992;2022-09-24T04:53:39;26.53;;;24.00;;
26478;SDS011;14163;-26.142;27.992;2022-09-24T04:56:14;24.23;;;21.90;;
26478;SDS011;14163;-26.142;27.992;2022-09-24T04:58:43;25.10;;;22.47;;
26478;SDS011;14163;-26.142;27.992;2022-09-24T05:01:16;27.07;;;24.53;;
26478;SDS011;14163;-26.142;27.992;2022-09-24T05:03:46;27.73;;;24.93;;
26478;SDS011;14163;-26.142;27.992;2022-09-24T05:06:15;26.03;;;23.60;;
26478;SDS011;14163;-26.142;27.992;2022-09-24T05:08:44;27.77;;;25.07;;
26478;SDS011;14163;-26.142;27.992;2022-09-24T05:11:15;26.17;;;23.70;;
26478;SDS011;14163;-26.142;27.992;2022-09-24T05:13:45;27.37;;;24.77;;
26478;SDS011;14163;-26.142;27.992;2022-09-24T05:16:14;27.30;;;24.70;;
26478;SDS011;14163;-26.142;27.992;2022-09-24T05:18:43;29.13;;;26.20;;
26478;SDS011;14163;-26.142;27.992;2022-09-24T05:21:12;30.70;;;27.63;;
26478;SDS011;14163;-26.142;27.992;2022-09-24T05:23:41;28.97;;;26.10;;
26478;SDS011;14163;-26.142;27.992;2022-09-24T05:26:11;33.20;;;29.97;;
26478;SDS011;14163;-26.142;27.992;2022-09-24T05:28:58;42.10;;;34.80;;
26478;SDS011;14163;-26.142;27.992;2022-09-24T05:31:27;70.93;;;54.63;;
26478;SDS011;14163;-26.142;27.992;2022-09-24T05:33:56;51.67;;;44.20;;
26478;SDS011;14163;-26.142;27.992;2022-09-24T05:36:25;38.00;;;32.40;;
26478;SDS011;14163;-26.142;27.992;2022-09-24T05:38:54;34.47;;;30.97;;
26478;SDS011;14163;-26.142;27.992;2022-09-24T05:41:23;29.87;;;26.90;;
26478;SDS011;14163;-26.142;27.992;2022-09-24T05:43:53;27.07;;;24.33;;
26478;SDS011;14163;-26.142;27.992;2022-09-24T05:46:26;27.03;;;24.27;;
26478;SDS011;14163;-26.142;27.992;2022-09-24T05:48:55;31.10;;;27.10;;
26478;SDS011;14163;-26.142;27.992;2022-09-24T05:51:24;30.83;;;27.70;;
26478;SDS011;14163;-26.142;27.992;2022-09-24T05:53:54;30.23;;;27.17;;
26478;SDS011;14163;-26.142;27.992;2022-09-24T05:56:23;41.67;;;36.57;;
26478;SDS011;14163;-26.142;27.992;2022-09-24T05:58:52;28.43;;;25.60;;
26478;SDS011;14163;-26.142;27.992;2022-09-24T06:01:21;34.27;;;30.90;;
26478;SDS011;14163;-26.142;27.992;2022-09-24T08:06:54;28.70;;;25.70;;
26478;SDS011;14163;-26.142;27.992;2022-09-24T08:09:25;30.23;;;27.03;;
26478;SDS011;14163;-26.142;27.992;2022-09-24T08:11:57;30.37;;;27.20;;
26478;SDS011;14163;-26.142;27.992;2022-09-24T08:14:27;29.30;;;26.23;;
26478;SDS011;14163;-26.142;27.992;2022-09-24T08:16:56;29.03;;;26.40;;
26478;SDS011;14163;-26.142;27.992;2022-09-24T08:19:25;29.53;;;26.63;;
26478;SDS011;14163;-26.142;27.992;2022-09-24T08:21:57;29.60;;;26.70;;
26478;SDS011;14163;-26.142;27.992;2022-09-24T08:24:26;32.47;;;29.27;;
26478;SDS011;14163;-26.142;27.992;2022-09-24T08:26:57;27.10;;;24.37;;
26478;SDS011;14163;-26.142;27.992;2022-09-24T08:29:26;28.77;;;25.77;;
26478;SDS011;14163;-26.142;27.992;2022-09-24T08:31:55;28.00;;;24.90;;
26478;SDS011;14163;-26.142;27.992;2022-09-24T08:34:24;29.40;;;26.30;;
26478;SDS011;14163;-26.142;27.992;2022-09-24T08:36:53;29.67;;;26.73;;
26478;SDS011;14163;-26.142;27.992;2022-09-24T08:39:25;27.97;;;25.17;;
26478;SDS011;14163;-26.142;27.992;2022-09-24T08:41:54;28.10;;;25.50;;
26478;SDS011;14163;-26.142;27.992;2022-09-24T08:44:27;26.43;;;23.73;;
26478;SDS011;14163;-26.142;27.992;2022-09-24T08:47:22;28.43;;;25.73;;
26478;SDS011;14163;-26.142;27.992;2022-09-24T08:50:02;28.07;;;25.37;;
26478;SDS011;14163;-26.142;27.992;2022-09-24T08:52:38;31.17;;;28.17;;
26478;SDS011;14163;-26.142;27.992;2022-09-24T08:55:35;28.10;;;25.30;;
26478;SDS011;14163;-26.142;27.992;2022-09-24T08:58:11;24.17;;;21.83;;
26478;SDS011;14163;-26.142;27.992;2022-09-24T09:00:53;28.80;;;25.70;;
26478;SDS011;14163;-26.142;27.992;2022-09-24T09:03:29;28.30;;;25.30;;
26478;SDS011;14163;-26.142;27.992;2022-09-24T09:06:04;27.30;;;24.60;;
26478;SDS011;14163;-26.142;27.992;2022-09-24T09:08:45;23.90;;;21.60;;
26478;SDS011;14163;-26.142;27.992;2022-09-24T09:11:20;26.87;;;23.87;;
26478;SDS011;14163;-26.142;27.992;2022-09-24T09:13:54;28.23;;;25.20;;
26478;SDS011;14163;-26.142;27.992;2022-09-24T09:16:26;26.77;;;23.80;;
26478;SDS011;14163;-26.142;27.992;2022-09-24T09:19:02;24.30;;;22.00;;
26478;SDS011;14163;-26.142;27.992;2022-09-24T09:21:36;24.10;;;21.90;;
26478;SDS011;14163;-26.142;27.992;2022-09-24T09:24:11;24.10;;;21.90;;
26478;SDS011;14163;-26.142;27.992;2022-09-24T09:26:47;26.13;;;23.90;;
26478;SDS011;14163;-26.142;27.992;2022-09-24T09:29:19;29.63;;;23.03;;
26478;SDS011;14163;-26.142;27.992;2022-09-24T09:31:54;23.80;;;21.33;;
26478;SDS011;14163;-26.142;27.992;2022-09-24T09:34:36;24.10;;;21.90;;
26478;SDS011;14163;-26.142;27.992;2022-09-24T09:37:18;23.83;;;21.73;;
26478;SDS011;14163;-26.142;27.992;2022-09-24T09:39:57;20.33;;;18.23;;
26478;SDS011;14163;-26.142;27.992;2022-09-24T09:42:41;16.13;;;14.73;;
26478;SDS011;14163;-26.142;27.992;2022-09-24T09:48:01;16.77;;;15.27;;
26478;SDS011;14163;-26.142;27.992;2022-09-24T09:50:33;21.33;;;19.30;;
26478;SDS011;14163;-26.142;27.992;2022-09-24T09:53:16;16.60;;;15.20;;
26478;SDS011;14163;-26.142;27.992;2022-09-24T09:55:50;17.10;;;15.60;;
26478;SDS011;14163;-26.142;27.992;2022-09-24T09:58:23;18.30;;;16.50;;
26478;SDS011;14163;-26.142;27.992;2022-09-24T10:01:02;15.97;;;14.67;;
26478;SDS011;14163;-26.142;27.992;2022-09-24T10:03:33;15.13;;;13.83;;
26478;SDS011;14163;-26.142;27.992;2022-09-24T10:06:21;13.23;;;12.13;;
26478;SDS011;14163;-26.142;27.992;2022-09-24T10:08:51;18.00;;;16.40;;
26478;SDS011;14163;-26.142;27.992;2022-09-24T10:11:21;17.20;;;14.93;;
26478;SDS011;14163;-26.142;27.992;2022-09-24T10:14:02;15.20;;;13.70;;
26478;SDS011;14163;-26.142;27.992;2022-09-24T10:16:34;18.40;;;16.63;;
26478;SDS011;14163;-26.142;27.992;2022-09-24T10:19:12;15.40;;;14.10;;
26478;SDS011;14163;-26.142;27.992;2022-09-24T10:21:44;14.70;;;13.20;;
26478;SDS011;14163;-26.142;27.992;2022-09-24T10:24:14;15.40;;;14.10;;
26478;SDS011;14163;-26.142;27.992;2022-09-24T10:26:46;15.00;;;13.60;;
26478;SDS011;14163;-26.142;27.992;2022-09-24T10:29:21;16.00;;;14.50;;
26478;SDS011;14163;-26.142;27.992;2022-09-24T10:32:13;15.90;;;14.60;;
26478;SDS011;14163;-26.142;27.992;2022-09-24T10:34:53;18.93;;;17.03;;
26478;SDS011;14163;-26.142;27.992;2022-09-24T10:37:23;17.57;;;15.60;;
26478;SDS011;14163;-26.142;27.992;2022-09-24T10:39:56;18.40;;;16.43;;
26478;SDS011;14163;-26.142;27.992;2022-09-24T10:42:26;17.33;;;14.83;;
26478;SDS011;14163;-26.142;27.992;2022-09-24T10:44:59;20.17;;;18.30;;
26478;SDS011;14163;-26.142;27.992;2022-09-24T10:47:31;25.80;;;23.13;;
26478;SDS011;14163;-26.142;27.992;2022-09-24T10:50:18;15.80;;;14.30;;
26478;SDS011;14163;-26.142;27.992;2022-09-24T10:52:55;16.10;;;14.70;;
26478;SDS011;14163;-26.142;27.992;2022-09-24T10:55:39;14.87;;;13.67;;
26478;SDS011;14163;-26.142;27.992;2022-09-24T10:58:20;14.97;;;13.77;;
26478;SDS011;14163;-26.142;27.992;2022-09-24T11:01:09;14.93;;;13.63;;
26478;SDS011;14163;-26.142;27.992;2022-09-24T11:03:50;15.33;;;14.13;;
26478;SDS011;14163;-26.142;27.992;2022-09-24T11:06:31;14.43;;;13.20;;
26478;SDS011;14163;-26.142;27.992;2022-09-24T11:09:13;16.60;;;15.07;;
26478;SDS011;14163;-26.142;27.992;2022-09-24T11:11:51;15.00;;;13.80;;
26478;SDS011;14163;-26.142;27.992;2022-09-24T11:14:33;15.03;;;13.80;;
26478;SDS011;14163;-26.142;27.992;2022-09-24T11:17:35;14.80;;;13.60;;
26478;SDS011;14163;-26.142;27.992;2022-09-24T11:20:20;15.80;;;14.50;;
26478;SDS011;14163;-26.142;27.992;2022-09-24T11:26:00;14.63;;;13.63;;
26478;SDS011;14163;-26.142;27.992;2022-09-24T11:28:43;14.63;;;13.33;;
26478;SDS011;14163;-26.142;27.992;2022-09-24T11:31:28;14.33;;;13.10;;
26478;SDS011;14163;-26.142;27.992;2022-09-24T11:34:12;24.50;;;22.57;;
26478;SDS011;14163;-26.142;27.992;2022-09-24T11:37:03;14.57;;;13.17;;
26478;SDS011;14163;-26.142;27.992;2022-09-24T11:39:45;13.37;;;12.40;;
26478;SDS011;14163;-26.142;27.992;2022-09-24T11:42:26;14.27;;;13.10;;
26478;SDS011;14163;-26.142;27.992;2022-09-24T11:50:49;14.57;;;13.30;;
26478;SDS011;14163;-26.142;27.992;2022-09-24T11:53:30;15.20;;;14.10;;
26478;SDS011;14163;-26.142;27.992;2022-09-24T11:56:06;13.80;;;12.87;;
26478;SDS011;14163;-26.142;27.992;2022-09-24T11:58:42;13.67;;;12.50;;
26478;SDS011;14163;-26.142;27.992;2022-09-24T12:01:14;13.93;;;13.00;;
26478;SDS011;14163;-26.142;27.992;2022-09-24T12:03:48;14.40;;;13.20;;
26478;SDS011;14163;-26.142;27.992;2022-09-24T12:06:26;14.77;;;13.50;;
26478;SDS011;14163;-26.142;27.992;2022-09-24T12:09:01;13.33;;;12.40;;
26478;SDS011;14163;-26.142;27.992;2022-09-24T12:11:37;14.40;;;13.10;;
26478;SDS011;14163;-26.142;27.992;2022-09-24T12:14:12;14.73;;;13.40;;
26478;SDS011;14163;-26.142;27.992;2022-09-24T12:16:45;16.53;;;15.23;;
26478;SDS011;14163;-26.142;27.992;2022-09-24T12:19:20;14.60;;;13.30;;
26478;SDS011;14163;-26.142;27.992;2022-09-24T12:21:55;14.17;;;13.10;;
26478;SDS011;14163;-26.142;27.992;2022-09-24T12:24:26;14.50;;;13.20;;
26478;SDS011;14163;-26.142;27.992;2022-09-24T12:27:00;14.50;;;13.60;;
26478;SDS011;14163;-26.142;27.992;2022-09-24T12:29:37;14.40;;;13.20;;
26478;SDS011;14163;-26.142;27.992;2022-09-24T12:32:29;14.30;;;13.00;;
26478;SDS011;14163;-26.142;27.992;2022-09-24T12:35:25;15.60;;;14.40;;
26478;SDS011;14163;-26.142;27.992;2022-09-24T12:38:05;13.27;;;12.37;;
26478;SDS011;14163;-26.142;27.992;2022-09-24T12:40:51;13.00;;;11.90;;
26478;SDS011;14163;-26.142;27.992;2022-09-24T12:43:34;12.80;;;11.60;;
26478;SDS011;14163;-26.142;27.992;2022-09-24T12:46:13;11.90;;;11.10;;
26478;SDS011;14163;-26.142;27.992;2022-09-24T12:48:45;12.63;;;11.73;;
26478;SDS011;14163;-26.142;27.992;2022-09-24T12:51:17;13.63;;;12.43;;
26478;SDS011;14163;-26.142;27.992;2022-09-24T12:53:57;12.63;;;11.73;;
26478;SDS011;14163;-26.142;27.992;2022-09-24T12:56:32;14.48;;;13.13;;
26478;SDS011;14163;-26.142;27.992;2022-09-24T12:59:01;14.50;;;13.30;;
26478;SDS011;14163;-26.142;27.992;2022-09-24T13:01:30;14.17;;;13.17;;
26478;SDS011;14163;-26.142;27.992;2022-09-24T13:04:04;14.77;;;13.67;;
26478;SDS011;14163;-26.142;27.992;2022-09-24T13:06:49;13.87;;;12.77;;
26478;SDS011;14163;-26.142;27.992;2022-09-24T13:09:25;14.20;;;13.20;;
26478;SDS011;14163;-26.142;27.992;2022-09-24T13:12:03;14.60;;;13.40;;
26478;SDS011;14163;-26.142;27.992;2022-09-24T13:14:52;14.80;;;13.70;;
26478;SDS011;14163;-26.142;27.992;2022-09-24T13:17:26;14.27;;;13.17;;
26478;SDS011;14163;-26.142;27.992;2022-09-24T13:19:56;14.27;;;13.27;;
26478;SDS011;14163;-26.142;27.992;2022-09-24T13:22:27;15.30;;;13.93;;
26478;SDS011;14163;-26.142;27.992;2022-09-24T13:27:58;13.90;;;12.80;;
26478;SDS011;14163;-26.142;27.992;2022-09-24T13:30:33;14.17;;;13.07;;
26478;SDS011;14163;-26.142;27.992;2022-09-24T13:33:14;13.33;;;12.33;;
26478;SDS011;14163;-26.142;27.992;2022-09-24T13:35:59;13.80;;;12.80;;
26478;SDS011;14163;-26.142;27.992;2022-09-24T13:38:33;14.23;;;13.10;;
26478;SDS011;14163;-26.142;27.992;2022-09-24T13:41:11;16.17;;;14.70;;
26478;SDS011;14163;-26.142;27.992;2022-09-24T13:43:49;15.63;;;14.23;;
26478;SDS011;14163;-26.142;27.992;2022-09-24T13:46:23;14.87;;;13.63;;
26478;SDS011;14163;-26.142;27.992;2022-09-24T13:48:54;14.53;;;13.37;;
26478;SDS011;14163;-26.142;27.992;2022-09-24T13:51:28;15.70;;;14.20;;
26478;SDS011;14163;-26.142;27.992;2022-09-24T13:54:02;19.60;;;15.27;;
26478;SDS011;14163;-26.142;27.992;2022-09-24T13:56:36;15.57;;;14.37;;
26478;SDS011;14163;-26.142;27.992;2022-09-24T13:59:09;16.13;;;14.73;;
26478;SDS011;14163;-26.142;27.992;2022-09-24T16:07:11;18.80;;;16.90;;
26478;SDS011;14163;-26.142;27.992;2022-09-24T16:09:41;19.97;;;18.37;;
26478;SDS011;14163;-26.142;27.992;2022-09-24T16:12:12;21.87;;;19.97;;
26478;SDS011;14163;-26.142;27.992;2022-09-24T16:14:43;20.30;;;18.20;;
26478;SDS011;14163;-26.142;27.992;2022-09-24T16:17:12;19.20;;;17.50;;
26478;SDS011;14163;-26.142;27.992;2022-09-24T16:19:41;19.90;;;18.10;;
26478;SDS011;14163;-26.142;27.992;2022-09-24T16:22:12;23.03;;;20.73;;
26478;SDS011;14163;-26.142;27.992;2022-09-24T16:24:41;20.73;;;18.50;;
26478;SDS011;14163;-26.142;27.992;2022-09-24T16:27:10;19.33;;;17.40;;
26478;SDS011;14163;-26.142;27.992;2022-09-24T16:29:40;18.73;;;17.03;;
26478;SDS011;14163;-26.142;27.992;2022-09-24T16:32:09;18.87;;;17.20;;
26478;SDS011;14163;-26.142;27.992;2022-09-24T16:34:38;19.10;;;17.17;;
26478;SDS011;14163;-26.142;27.992;2022-09-24T16:37:08;18.57;;;16.83;;
26478;SDS011;14163;-26.142;27.992;2022-09-24T16:39:40;19.67;;;17.60;;
26478;SDS011;14163;-26.142;27.992;2022-09-24T16:42:09;19.93;;;18.23;;
26478;SDS011;14163;-26.142;27.992;2022-09-24T16:44:38;20.00;;;18.20;;
26478;SDS011;14163;-26.142;27.992;2022-09-24T16:47:08;23.00;;;20.87;;
26478;SDS011;14163;-26.142;27.992;2022-09-24T16:49:40;27.97;;;25.33;;
26478;SDS011;14163;-26.142;27.992;2022-09-24T16:52:10;31.10;;;28.20;;
26478;SDS011;14163;-26.142;27.992;2022-09-24T16:54:41;32.97;;;29.50;;
26478;SDS011;14163;-26.142;27.992;2022-09-24T16:57:10;32.60;;;29.27;;
26478;SDS011;14163;-26.142;27.992;2022-09-24T16:59:39;45.00;;;34.67;;
26478;SDS011;14163;-26.142;27.992;2022-09-24T17:02:09;27.67;;;25.10;;
26478;SDS011;14163;-26.142;27.992;2022-09-24T17:04:39;33.77;;;30.20;;
26478;SDS011;14163;-26.142;27.992;2022-09-24T17:07:08;29.13;;;25.93;;
26478;SDS011;14163;-26.142;27.992;2022-09-24T17:09:38;27.70;;;24.70;;
26478;SDS011;14163;-26.142;27.992;2022-09-24T17:12:25;27.50;;;24.70;;
26478;SDS011;14163;-26.142;27.992;2022-09-24T17:14:54;33.27;;;29.97;;
26478;SDS011;14163;-26.142;27.992;2022-09-24T17:17:26;28.53;;;25.63;;
26478;SDS011;14163;-26.142;27.992;2022-09-24T17:19:56;21.90;;;19.80;;
26478;SDS011;14163;-26.142;27.992;2022-09-24T17:22:25;22.63;;;20.37;;
26478;SDS011;14163;-26.142;27.992;2022-09-24T17:24:55;23.83;;;21.43;;
26478;SDS011;14163;-26.142;27.992;2022-09-24T17:27:26;27.30;;;24.50;;
26478;SDS011;14163;-26.142;27.992;2022-09-24T17:29:56;32.30;;;25.77;;
26478;SDS011;14163;-26.142;27.992;2022-09-24T17:32:26;30.80;;;26.30;;
26478;SDS011;14163;-26.142;27.992;2022-09-24T17:34:55;32.03;;;28.70;;
26478;SDS011;14163;-26.142;27.992;2022-09-24T17:37:24;30.37;;;27.53;;
26478;SDS011;14163;-26.142;27.992;2022-09-24T17:39:53;30.60;;;27.60;;
26478;SDS011;14163;-26.142;27.992;2022-09-24T17:42:23;26.40;;;23.90;;
26478;SDS011;14163;-26.142;27.992;2022-09-24T17:44:54;26.93;;;24.03;;
26478;SDS011;14163;-26.142;27.992;2022-09-24T17:47:23;27.13;;;24.23;;
26478;SDS011;14163;-26.142;27.992;2022-09-24T17:50:12;26.53;;;23.83;;
26478;SDS011;14163;-26.142;27.992;2022-09-24T17:52:42;30.03;;;26.67;;
26478;SDS011;14163;-26.142;27.992;2022-09-24T17:55:11;27.97;;;25.23;;
26478;SDS011;14163;-26.142;27.992;2022-09-24T17:57:40;29.07;;;26.00;;
26478;SDS011;14163;-26.142;27.992;2022-09-24T18:00:11;30.07;;;27.07;;
26478;SDS011;14163;-26.142;27.992;2022-09-24T18:02:41;29.87;;;26.87;;
26478;SDS011;14163;-26.142;27.992;2022-09-24T18:05:11;31.77;;;28.47;;
26478;SDS011;14163;-26.142;27.992;2022-09-24T18:07:43;29.77;;;27.00;;
26478;SDS011;14163;-26.142;27.992;2022-09-24T18:10:12;29.50;;;26.57;;
26478;SDS011;14163;-26.142;27.992;2022-09-24T18:12:43;28.37;;;25.73;;
26478;SDS011;14163;-26.142;27.992;2022-09-24T18:15:14;30.53;;;27.63;;
26478;SDS011;14163;-26.142;27.992;2022-09-24T18:17:44;31.63;;;28.63;;
26478;SDS011;14163;-26.142;27.992;2022-09-24T18:20:13;33.00;;;30.00;;
26478;SDS011;14163;-26.142;27.992;2022-09-24T18:22:43;34.20;;;30.60;;
26478;SDS011;14163;-26.142;27.992;2022-09-24T18:25:14;33.83;;;30.53;;
26478;SDS011;14163;-26.142;27.992;2022-09-24T18:27:44;34.43;;;30.93;;
26478;SDS011;14163;-26.142;27.992;2022-09-24T18:30:16;33.73;;;30.43;;
26478;SDS011;14163;-26.142;27.992;2022-09-24T18:32:46;30.93;;;28.03;;
26478;SDS011;14163;-26.142;27.992;2022-09-24T18:35:15;32.33;;;29.07;;
26478;SDS011;14163;-26.142;27.992;2022-09-24T18:37:44;36.73;;;32.67;;
26478;SDS011;14163;-26.142;27.992;2022-09-24T18:40:17;29.80;;;26.80;;
26478;SDS011;14163;-26.142;27.992;2022-09-24T18:42:47;30.03;;;27.03;;
26478;SDS011;14163;-26.142;27.992;2022-09-24T18:48:13;28.43;;;25.73;;
26478;SDS011;14163;-26.142;27.992;2022-09-24T18:50:42;27.10;;;24.37;;
26478;SDS011;14163;-26.142;27.992;2022-09-24T18:53:12;28.90;;;25.87;;
26478;SDS011;14163;-26.142;27.992;2022-09-24T18:55:42;32.93;;;26.13;;
26478;SDS011;14163;-26.142;27.992;2022-09-24T18:58:12;29.30;;;26.63;;
26478;SDS011;14163;-26.142;27.992;2022-09-24T19:00:43;28.60;;;25.93;;
26478;SDS011;14163;-26.142;27.992;2022-09-24T19:03:21;25.93;;;23.73;;
26478;SDS011;14163;-26.142;27.992;2022-09-24T19:05:52;25.77;;;23.07;;